Sakishima No.116 — JH3376 — position and weather

sailwx.info

Track history (hours):
 
Tides and Currents Weather Stations Pressure Air Temp Water Temp Dewpoint Dewpoint Depression Visibility Wind Speed Wind Dir Waves Ship Positions

Sakishima No.116

Last reported at 2017-Nov-10 10:18 UTC. Time now 2017-Nov-23 05:26 UTC.
Position N 34°60' E 139°43'.
Warning: this ship's position is 12 days out of date.

Length 82 m; draft 5 m.

Type: Cargo ship. MMSI: 431200133.

Date/timePositionNaut miles runAvg speedWind from/ knotsBaromVisibWave heightAir tempDewpointWater temp
2017-Nov-10 10:18N 34°60' E 139°43'412.1
2017-Nov-10 10:00N 35°03' E 139°44'611.8
2017-Nov-10 09:30N 35°09' E 139°45'611.7
2017-Nov-10 09:00N 35°15' E 139°46'611.5
2017-Nov-10 08:30N 35°20' E 139°43'510.4
2017-Nov-10 08:01N 35°25' E 139°44'5 9.5
2017-Nov-10 07:30N 35°23' E 139°49'2 3.5
2017-Nov-10 07:00N 35°22' E 139°51'0 0.0
2017-Nov-10 06:31N 35°22' E 139°51'0 0.0
2017-Nov-10 05:49N 35°22' E 139°51'0 0.0
2017-Nov-10 05:31N 35°22' E 139°51'0 0.0
2017-Nov-10 05:01N 35°22' E 139°51'0 0.0
2017-Nov-10 04:30N 35°22' E 139°51'0 0.0
2017-Nov-10 04:00N 35°22' E 139°51'0 0.2
2017-Nov-10 03:30N 35°22' E 139°51'2 1.8
2017-Nov-10 02:20N 35°22' E 139°53'0 0.0
2017-Nov-10 01:59N 35°22' E 139°53'0 0.0
2017-Nov-09 22:38N 35°22' E 139°53'0 0.0
2017-Nov-09 21:41N 35°22' E 139°53'0 0.0
2017-Nov-09 21:14N 35°22' E 139°53'0 0.0
2017-Nov-09 17:59N 35°22' E 139°53'0 0.0
2017-Nov-09 16:35N 35°22' E 139°53'0 0.0
2017-Nov-09 16:17N 35°22' E 139°53'0 0.0
2017-Nov-09 15:53N 35°22' E 139°53'0 0.0
2017-Nov-09 12:29N 35°22' E 139°53'0 0.0
2017-Nov-09 10:56N 35°22' E 139°53'0 0.0
2017-Nov-09 08:47N 35°22' E 139°53'0 0.0
2017-Nov-09 08:23N 35°22' E 139°53'0 0.0
2017-Nov-09 07:56N 35°22' E 139°53'0 0.0
2017-Nov-09 07:23N 35°22' E 139°53'0 0.0
2017-Nov-09 06:47N 35°22' E 139°53'0 0.0
2017-Nov-09 06:26N 35°22' E 139°53'0 0.2
2017-Nov-09 05:54N 35°22' E 139°53'0 0.1
2017-Nov-09 03:45N 35°22' E 139°53'0 0.0
2017-Nov-09 03:28N 35°22' E 139°53'0 0.0
2017-Nov-09 03:01N 35°22' E 139°53'3 6.7
2017-Nov-09 02:31N 35°23' E 139°49'5 9.4
2017-Nov-09 02:00N 35°20' E 139°45'4 7.6
2017-Nov-09 01:31N 35°18' E 139°42'1 1.8
2017-Nov-09 01:00N 35°17' E 139°41'0 0.0
2017-Nov-09 00:27N 35°17' E 139°41'0 0.0
2017-Nov-09 00:00N 35°17' E 139°41'0 0.0
2017-Nov-08 23:30N 35°17' E 139°41'0 0.0
2017-Nov-08 23:00N 35°17' E 139°41'0 0.0
2017-Nov-08 22:30N 35°17' E 139°41'0 0.0
2017-Nov-08 22:00N 35°17' E 139°41'0 0.0
2017-Nov-08 21:30N 35°17' E 139°41'0 0.0
2017-Nov-08 21:00N 35°17' E 139°41'0 0.0
2017-Nov-08 20:30N 35°17' E 139°41'0 0.0
2017-Nov-08 20:00N 35°17' E 139°41'0 0.0
2017-Nov-08 19:30N 35°17' E 139°41'0 0.0
2017-Nov-08 19:00N 35°17' E 139°41'0 0.0
2017-Nov-08 18:30N 35°17' E 139°41'0 0.0
2017-Nov-08 18:00N 35°17' E 139°41'0 0.0
2017-Nov-08 17:30N 35°17' E 139°41'0 0.0
2017-Nov-08 17:00N 35°17' E 139°41'0 0.0
2017-Nov-08 16:30N 35°17' E 139°41'0 0.0
2017-Nov-08 16:00N 35°17' E 139°41'0 0.0
2017-Nov-08 15:27N 35°17' E 139°41'0 0.0
2017-Nov-08 15:00N 35°17' E 139°41'0 0.0
2017-Nov-08 14:30N 35°17' E 139°41'0 0.0
2017-Nov-08 14:00N 35°17' E 139°41'0 0.0
2017-Nov-08 13:27N 35°17' E 139°41'0 0.0
2017-Nov-08 12:57N 35°17' E 139°41'0 0.0
2017-Nov-08 12:30N 35°17' E 139°41'0 0.0
2017-Nov-08 12:00N 35°17' E 139°41'0 0.0
2017-Nov-08 11:30N 35°17' E 139°41'0 0.0
2017-Nov-08 11:00N 35°17' E 139°41'0 0.0
2017-Nov-08 10:27N 35°17' E 139°41'0 0.0
2017-Nov-08 10:00N 35°17' E 139°41'0 0.0
2017-Nov-08 09:30N 35°17' E 139°41'0 0.0
2017-Nov-08 08:57N 35°17' E 139°41'0 0.0
2017-Nov-08 08:30N 35°17' E 139°41'0 0.0
2017-Nov-08 08:00N 35°17' E 139°41'0 0.0
2017-Nov-08 07:30N 35°17' E 139°41'0 0.0
2017-Nov-08 07:00N 35°17' E 139°41'0 0.0
2017-Nov-08 06:30N 35°17' E 139°41'0 0.0
2017-Nov-08 06:00N 35°17' E 139°41'0 0.0
2017-Nov-08 05:30N 35°17' E 139°41'0 0.0
2017-Nov-08 05:00N 35°17' E 139°41'0 0.0
2017-Nov-08 04:30N 35°17' E 139°41'0 0.0
2017-Nov-08 04:00N 35°17' E 139°41'0 0.2
2017-Nov-08 03:30N 35°17' E 139°41'1 1.8
2017-Nov-08 03:00N 35°18' E 139°42'4 8.4
2017-Nov-08 02:30N 35°16' E 139°46'611.5
2017-Nov-08 01:59N 35°10' E 139°47'  
2017-Nov-01 02:00N 35°22' E 139°51'1 1.9
2017-Nov-01 01:30N 35°23' E 139°50'3 0.6
2017-Oct-31 21:13N 35°22' E 139°53'0 0.0
2017-Oct-31 20:56N 35°22' E 139°53'0 0.5
2017-Oct-31 20:29N 35°22' E 139°53'0 0.1
2017-Oct-31 19:55N 35°22' E 139°53'0 0.0
2017-Oct-31 19:28N 35°22' E 139°53'0 0.0
2017-Oct-31 18:20N 35°22' E 139°53'3 8.4
2017-Oct-31 18:01N 35°23' E 139°50'5 9.7
2017-Oct-31 17:31N 35°21' E 139°45'5 9.7
2017-Oct-31 17:00N 35°16' E 139°47'510.7
2017-Oct-31 16:31N 35°11' E 139°47'611.2
2017-Oct-31 16:00N 35°05' E 139°45'611.2
2017-Oct-31 15:30N 34°60' E 139°44'  
Track history (hours):
 
Tides and Currents Weather Stations Pressure Air Temp Water Temp Dewpoint Dewpoint Depression Visibility Wind Speed Wind Dir Waves Ship Positions

Sakishima No.116

Last reported at 2017-Nov-10 10:18 UTC. Time now 2017-Nov-23 05:26 UTC.
Position N 34°60' E 139°43'.
Warning: this ship's position is 12 days out of date.

Length 82 m; draft 5 m.

Type: Cargo ship. MMSI: 431200133.

Date/timePositionNaut miles runAvg speedWind from/ knotsBaromVisibWave heightAir tempDewpointWater temp
2017-Nov-10 10:18N 34°60' E 139°43'412.1
2017-Nov-10 10:00N 35°03' E 139°44'611.8
2017-Nov-10 09:30N 35°09' E 139°45'611.7
2017-Nov-10 09:00N 35°15' E 139°46'611.5
2017-Nov-10 08:30N 35°20' E 139°43'510.4
2017-Nov-10 08:01N 35°25' E 139°44'5 9.5
2017-Nov-10 07:30N 35°23' E 139°49'2 3.5
2017-Nov-10 07:00N 35°22' E 139°51'0 0.0
2017-Nov-10 06:31N 35°22' E 139°51'0 0.0
2017-Nov-10 05:49N 35°22' E 139°51'0 0.0
2017-Nov-10 05:31N 35°22' E 139°51'0 0.0
2017-Nov-10 05:01N 35°22' E 139°51'0 0.0
2017-Nov-10 04:30N 35°22' E 139°51'0 0.0
2017-Nov-10 04:00N 35°22' E 139°51'0 0.2
2017-Nov-10 03:30N 35°22' E 139°51'2 1.8
2017-Nov-10 02:20N 35°22' E 139°53'0 0.0
2017-Nov-10 01:59N 35°22' E 139°53'0 0.0
2017-Nov-09 22:38N 35°22' E 139°53'0 0.0
2017-Nov-09 21:41N 35°22' E 139°53'0 0.0
2017-Nov-09 21:14N 35°22' E 139°53'0 0.0
2017-Nov-09 17:59N 35°22' E 139°53'0 0.0
2017-Nov-09 16:35N 35°22' E 139°53'0 0.0
2017-Nov-09 16:17N 35°22' E 139°53'0 0.0
2017-Nov-09 15:53N 35°22' E 139°53'0 0.0
2017-Nov-09 12:29N 35°22' E 139°53'0 0.0
2017-Nov-09 10:56N 35°22' E 139°53'0 0.0
2017-Nov-09 08:47N 35°22' E 139°53'0 0.0
2017-Nov-09 08:23N 35°22' E 139°53'0 0.0
2017-Nov-09 07:56N 35°22' E 139°53'0 0.0
2017-Nov-09 07:23N 35°22' E 139°53'0 0.0
2017-Nov-09 06:47N 35°22' E 139°53'0 0.0
2017-Nov-09 06:26N 35°22' E 139°53'0 0.2
2017-Nov-09 05:54N 35°22' E 139°53'0 0.1
2017-Nov-09 03:45N 35°22' E 139°53'0 0.0
2017-Nov-09 03:28N 35°22' E 139°53'0 0.0
2017-Nov-09 03:01N 35°22' E 139°53'3 6.7
2017-Nov-09 02:31N 35°23' E 139°49'5 9.4
2017-Nov-09 02:00N 35°20' E 139°45'4 7.6
2017-Nov-09 01:31N 35°18' E 139°42'1 1.8
2017-Nov-09 01:00N 35°17' E 139°41'0 0.0
2017-Nov-09 00:27N 35°17' E 139°41'0 0.0
2017-Nov-09 00:00N 35°17' E 139°41'0 0.0
2017-Nov-08 23:30N 35°17' E 139°41'0 0.0
2017-Nov-08 23:00N 35°17' E 139°41'0 0.0
2017-Nov-08 22:30N 35°17' E 139°41'0 0.0
2017-Nov-08 22:00N 35°17' E 139°41'0 0.0
2017-Nov-08 21:30N 35°17' E 139°41'0 0.0
2017-Nov-08 21:00N 35°17' E 139°41'0 0.0
2017-Nov-08 20:30N 35°17' E 139°41'0 0.0
2017-Nov-08 20:00N 35°17' E 139°41'0 0.0
2017-Nov-08 19:30N 35°17' E 139°41'0 0.0
2017-Nov-08 19:00N 35°17' E 139°41'0 0.0
2017-Nov-08 18:30N 35°17' E 139°41'0 0.0
2017-Nov-08 18:00N 35°17' E 139°41'0 0.0
2017-Nov-08 17:30N 35°17' E 139°41'0 0.0
2017-Nov-08 17:00N 35°17' E 139°41'0 0.0
2017-Nov-08 16:30N 35°17' E 139°41'0 0.0
2017-Nov-08 16:00N 35°17' E 139°41'0 0.0
2017-Nov-08 15:27N 35°17' E 139°41'0 0.0
2017-Nov-08 15:00N 35°17' E 139°41'0 0.0
2017-Nov-08 14:30N 35°17' E 139°41'0 0.0
2017-Nov-08 14:00N 35°17' E 139°41'0 0.0
2017-Nov-08 13:27N 35°17' E 139°41'0 0.0
2017-Nov-08 12:57N 35°17' E 139°41'0 0.0
2017-Nov-08 12:30N 35°17' E 139°41'0 0.0
2017-Nov-08 12:00N 35°17' E 139°41'0 0.0
2017-Nov-08 11:30N 35°17' E 139°41'0 0.0
2017-Nov-08 11:00N 35°17' E 139°41'0 0.0
2017-Nov-08 10:27N 35°17' E 139°41'0 0.0
2017-Nov-08 10:00N 35°17' E 139°41'0 0.0
2017-Nov-08 09:30N 35°17' E 139°41'0 0.0
2017-Nov-08 08:57N 35°17' E 139°41'0 0.0
2017-Nov-08 08:30N 35°17' E 139°41'0 0.0
2017-Nov-08 08:00N 35°17' E 139°41'0 0.0
2017-Nov-08 07:30N 35°17' E 139°41'0 0.0
2017-Nov-08 07:00N 35°17' E 139°41'0 0.0
2017-Nov-08 06:30N 35°17' E 139°41'0 0.0
2017-Nov-08 06:00N 35°17' E 139°41'0 0.0
2017-Nov-08 05:30N 35°17' E 139°41'0 0.0
2017-Nov-08 05:00N 35°17' E 139°41'0 0.0
2017-Nov-08 04:30N 35°17' E 139°41'0 0.0
2017-Nov-08 04:00N 35°17' E 139°41'0 0.2
2017-Nov-08 03:30N 35°17' E 139°41'1 1.8
2017-Nov-08 03:00N 35°18' E 139°42'4 8.4
2017-Nov-08 02:30N 35°16' E 139°46'611.5
2017-Nov-08 01:59N 35°10' E 139°47'  
2017-Nov-01 02:00N 35°22' E 139°51'1 1.9
2017-Nov-01 01:30N 35°23' E 139°50'3 0.6
2017-Oct-31 21:13N 35°22' E 139°53'0 0.0
2017-Oct-31 20:56N 35°22' E 139°53'0 0.5
2017-Oct-31 20:29N 35°22' E 139°53'0 0.1
2017-Oct-31 19:55N 35°22' E 139°53'0 0.0
2017-Oct-31 19:28N 35°22' E 139°53'0 0.0
2017-Oct-31 18:20N 35°22' E 139°53'3 8.4
2017-Oct-31 18:01N 35°23' E 139°50'5 9.7
2017-Oct-31 17:31N 35°21' E 139°45'5 9.7
2017-Oct-31 17:00N 35°16' E 139°47'510.7
2017-Oct-31 16:31N 35°11' E 139°47'611.2
2017-Oct-31 16:00N 35°05' E 139°45'611.2
2017-Oct-31 15:30N 34°60' E 139°44'  

Dump ship's entire track history